PWSweather.com
Personal Weather Stations
Station Observations
HELOTES
Helotes Park Terrace, Helotes, TX 78023

Helotes Park TerraceHelotes, TX 78023

Lat: 29.57, Lon: -98.68

Elevation: 1060

Station Type: Ambient Weather WS-1090

Latest ConditionsUpdated 11:13:45 AM CDT Thursday, Mar 23, 2017
Currently Today's Max Today's Min Today's Average
Temperature 71.1°F21.7°C 71.1°F21.7°C 64.6°F18.1°C 66.2°F19.0°C
Dew Point 63.9°F17.7°C 64.3°F17.9°C 60.7°F15.9°C 62.0°F16.7°C
Winds 3.0 mph E4.8 kmh E 5.4 mph ESE8.7 kmh ESE - 2.2 mph 3.5 kmh
Wind Gusts 4.7 mph7.6 kmh 7.4 mph11.9 kmh - -
Humidity 78% 89% 78% 86%
Pressure 30.01 in1016.3 mb 30.02 in1016.6 mb 29.97 in1014.9 mb -
Hour Temp Dew Point Humidity Winds Wind Gusts Pressure Precip Precip Rate Daily Precip Total
11:13 AM 71.1°F21.7°C 63.9°F17.7°C 78% 3.0 mph E4.8 kmh E 4.7 mph7.6 kmh 30.01 in1016.3 mb 0.00 in0.0 mm 0.00 in0.0 mm 0.00 in0.0 mm
11:08 AM 70.7°F21.5°C 64.3°F17.9°C 80% 3.6 mph E5.8 kmh E 7.4 mph11.9 kmh 30.01 in1016.3 mb 0.00 in0.0 mm 0.00 in0.0 mm 0.00 in0.0 mm
11:03 AM 70.2°F21.2°C 63.7°F17.6°C 80% 4.0 mph SSW6.4 kmh SSW 7.4 mph11.9 kmh 30.01 in1016.3 mb 0.00 in0.0 mm 0.00 in0.0 mm 0.00 in0.0 mm
10:58 AM 69.7°F20.9°C 63.6°F17.6°C 81% 2.6 mph E4.2 kmh E 6.0 mph9.7 kmh 30.01 in1016.3 mb 0.00 in0.0 mm 0.00 in0.0 mm 0.00 in0.0 mm
10:53 AM 68.8°F20.4°C 63.1°F17.3°C 82% 2.0 mph SE3.2 kmh SE 5.4 mph8.7 kmh 30.01 in1016.3 mb 0.00 in0.0 mm 0.00 in0.0 mm 0.00 in0.0 mm
10:48 AM 68.2°F20.1°C 62.6°F17.0°C 82% 5.4 mph ESE8.7 kmh ESE 5.4 mph8.7 kmh 30.01 in1016.3 mb 0.00 in0.0 mm 0.00 in0.0 mm 0.00 in0.0 mm
10:43 AM 68.0°F20.0°C 62.4°F16.9°C 82% 1.9 mph E3.1 kmh E 5.6 mph9.0 kmh 30.01 in1016.3 mb 0.00 in0.0 mm 0.00 in0.0 mm 0.00 in0.0 mm
10:38 AM 67.9°F19.9°C 62.6°F17.0°C 83% 4.8 mph SE7.7 kmh SE 5.6 mph9.0 kmh 30.01 in1016.3 mb 0.00 in0.0 mm 0.00 in0.0 mm 0.00 in0.0 mm
10:33 AM 67.5°F19.7°C 62.5°F16.9°C 84% 2.9 mph NE4.7 kmh NE 4.5 mph7.2 kmh 30.01 in1016.3 mb 0.00 in0.0 mm 0.00 in0.0 mm 0.00 in0.0 mm
10:28 AM 66.8°F19.3°C 61.7°F16.5°C 84% 3.2 mph E5.1 kmh E 5.8 mph9.3 kmh 30.01 in1016.3 mb 0.00 in0.0 mm 0.00 in0.0 mm 0.00 in0.0 mm
10:23 AM 66.8°F19.3°C 61.7°F16.5°C 84% 3.9 mph NW6.3 kmh NW 5.8 mph9.3 kmh 30.01 in1016.3 mb 0.00 in0.0 mm 0.00 in0.0 mm 0.00 in0.0 mm
10:18 AM 66.8°F19.3°C 61.7°F16.5°C 84% 2.3 mph NE3.7 kmh NE 4.7 mph7.6 kmh 30.01 in1016.3 mb 0.00 in0.0 mm 0.00 in0.0 mm 0.00 in0.0 mm
10:13 AM 66.8°F19.3°C 61.7°F16.5°C 84% 3.3 mph SE5.3 kmh SE 4.7 mph7.6 kmh 30.02 in1016.6 mb 0.00 in0.0 mm 0.00 in0.0 mm 0.00 in0.0 mm
10:08 AM 66.8°F19.3°C 62.1°F16.7°C 85% 1.8 mph ENE2.9 kmh ENE 4.7 mph7.6 kmh 30.02 in1016.6 mb 0.00 in0.0 mm 0.00 in0.0 mm 0.00 in0.0 mm
10:03 AM 66.6°F19.2°C 61.9°F16.6°C 85% 3.8 mph S6.1 kmh S 5.1 mph8.2 kmh 30.02 in1016.6 mb 0.00 in0.0 mm 0.00 in0.0 mm 0.00 in0.0 mm
09:58 AM 66.6°F19.2°C 61.9°F16.6°C 85% 2.5 mph NE4.0 kmh NE 5.1 mph8.2 kmh 30.01 in1016.3 mb 0.00 in0.0 mm 0.00 in0.0 mm 0.00 in0.0 mm
09:53 AM 66.4°F19.1°C 61.7°F16.5°C 85% 3.1 mph SE5.0 kmh SE 5.4 mph8.7 kmh 30.01 in1016.3 mb 0.00 in0.0 mm 0.00 in0.0 mm 0.00 in0.0 mm
09:48 AM 66.4°F19.1°C 61.7°F16.5°C 85% 3.5 mph E5.6 kmh E 5.4 mph8.7 kmh 30.01 in1016.3 mb 0.00 in0.0 mm 0.00 in0.0 mm 0.00 in0.0 mm
09:43 AM 66.6°F19.2°C 61.9°F16.6°C 85% 3.2 mph SSW5.1 kmh SSW 4.7 mph7.6 kmh 30.01 in1016.3 mb 0.00 in0.0 mm 0.00 in0.0 mm 0.00 in0.0 mm
09:38 AM 66.8°F19.3°C 62.5°F16.9°C 86% 2.5 mph SE4.0 kmh SE 5.8 mph9.3 kmh 30.01 in1016.3 mb 0.00 in0.0 mm 0.00 in0.0 mm 0.00 in0.0 mm
09:33 AM 66.8°F19.3°C 62.7°F17.1°C 87% 4.6 mph SSE7.4 kmh SSE 5.8 mph9.3 kmh 30.01 in1016.3 mb 0.00 in0.0 mm 0.00 in0.0 mm 0.00 in0.0 mm
09:28 AM 66.6°F19.2°C 62.6°F17.0°C 87% 3.2 mph NE5.1 kmh NE 5.1 mph8.2 kmh 30.01 in1016.3 mb 0.00 in0.0 mm 0.00 in0.0 mm 0.00 in0.0 mm
09:23 AM 66.2°F19.0°C 62.2°F16.8°C 87% 3.1 mph NE5.0 kmh NE 5.1 mph8.2 kmh 30.00 in1015.9 mb 0.00 in0.0 mm 0.00 in0.0 mm 0.00 in0.0 mm
09:18 AM 66.2°F19.0°C 62.6°F17.0°C 88% 3.3 mph E5.3 kmh E 6.3 mph10.1 kmh 30.00 in1015.9 mb 0.00 in0.0 mm 0.00 in0.0 mm 0.00 in0.0 mm
09:13 AM 66.1°F18.9°C 62.4°F16.9°C 88% 1.8 mph E2.9 kmh E 6.3 mph10.1 kmh 30.00 in1015.9 mb 0.00 in0.0 mm 0.00 in0.0 mm 0.00 in0.0 mm
09:08 AM 66.2°F19.0°C 62.6°F17.0°C 88% 3.1 mph E5.0 kmh E 5.4 mph8.7 kmh 30.00 in1015.9 mb 0.00 in0.0 mm 0.00 in0.0 mm 0.00 in0.0 mm
09:03 AM 66.2°F19.0°C 62.8°F17.1°C 89% 3.8 mph NNW6.1 kmh NNW 4.0 mph6.4 kmh 30.00 in1015.9 mb 0.00 in0.0 mm 0.00 in0.0 mm 0.00 in0.0 mm
08:58 AM 65.9°F18.8°C 62.6°F17.0°C 89% 1.1 mph ENE1.8 kmh ENE 4.5 mph7.2 kmh 30.00 in1015.9 mb 0.00 in0.0 mm 0.00 in0.0 mm 0.00 in0.0 mm
08:53 AM 65.5°F18.6°C 61.8°F16.6°C 88% 3.1 mph ESE5.0 kmh ESE 4.5 mph7.2 kmh 30.00 in1015.9 mb 0.00 in0.0 mm 0.00 in0.0 mm 0.00 in0.0 mm
08:48 AM 65.5°F18.6°C 61.8°F16.6°C 88% 0.6 mph NE1.0 kmh NE 2.7 mph4.3 kmh 30.00 in1015.9 mb 0.00 in0.0 mm 0.00 in0.0 mm 0.00 in0.0 mm
08:43 AM 65.5°F18.6°C 61.8°F16.6°C 88% 0.8 mph ESE1.3 kmh ESE 3.8 mph6.1 kmh 30.00 in1015.9 mb 0.00 in0.0 mm 0.00 in0.0 mm 0.00 in0.0 mm
08:38 AM 65.2°F18.4°C 61.6°F16.4°C 88% 0.5 mph SE0.8 kmh SE 4.7 mph7.6 kmh 29.99 in1015.6 mb 0.00 in0.0 mm 0.00 in0.0 mm 0.00 in0.0 mm
08:33 AM 65.2°F18.4°C 61.6°F16.4°C 88% 2.0 mph ESE3.2 kmh ESE 4.7 mph7.6 kmh 29.99 in1015.6 mb 0.00 in0.0 mm 0.00 in0.0 mm 0.00 in0.0 mm
08:28 AM 65.2°F18.4°C 61.6°F16.4°C 88% 1.7 mph E2.7 kmh E 4.0 mph6.4 kmh 29.99 in1015.6 mb 0.00 in0.0 mm 0.00 in0.0 mm 0.00 in0.0 mm
08:23 AM 65.0°F18.3°C 61.4°F16.3°C 88% 1.8 mph E2.9 kmh E 4.0 mph6.4 kmh 29.99 in1015.6 mb 0.00 in0.0 mm 0.00 in0.0 mm 0.00 in0.0 mm
08:18 AM 64.8°F18.2°C 61.2°F16.2°C 88% 1.5 mph SSW2.4 kmh SSW 4.9 mph7.9 kmh 29.99 in1015.6 mb 0.00 in0.0 mm 0.00 in0.0 mm 0.00 in0.0 mm
08:13 AM 64.6°F18.1°C 61.0°F16.1°C 88% 0.7 mph NE1.1 kmh NE 4.9 mph7.9 kmh 29.99 in1015.6 mb 0.00 in0.0 mm 0.00 in0.0 mm 0.00 in0.0 mm
08:08 AM 64.6°F18.1°C 61.0°F16.1°C 88% 2.2 mph ESE3.5 kmh ESE 2.5 mph4.0 kmh 29.99 in1015.6 mb 0.00 in0.0 mm 0.00 in0.0 mm 0.00 in0.0 mm
08:03 AM 64.6°F18.1°C 61.0°F16.1°C 88% 2.0 mph NE3.2 kmh NE 2.5 mph4.0 kmh 29.99 in1015.6 mb 0.00 in0.0 mm 0.00 in0.0 mm 0.00 in0.0 mm
07:58 AM 64.6°F18.1°C 60.7°F15.9°C 87% 0.7 mph ESE1.1 kmh ESE 2.7 mph4.3 kmh 29.99 in1015.6 mb 0.00 in0.0 mm 0.00 in0.0 mm 0.00 in0.0 mm
07:53 AM 64.6°F18.1°C 60.7°F15.9°C 87% 1.8 mph ESE2.9 kmh ESE 2.7 mph4.3 kmh 29.99 in1015.6 mb 0.00 in0.0 mm 0.00 in0.0 mm 0.00 in0.0 mm
07:48 AM 64.6°F18.1°C 60.7°F15.9°C 87% 2.7 mph ESE4.3 kmh ESE 2.7 mph4.3 kmh 29.99 in1015.6 mb 0.00 in0.0 mm 0.00 in0.0 mm 0.00 in0.0 mm
07:43 AM 64.6°F18.1°C 60.7°F15.9°C 87% Calm Calm 4.5 mph7.2 kmh 29.99 in1015.6 mb 0.00 in0.0 mm 0.00 in0.0 mm 0.00 in0.0 mm
07:38 AM 64.8°F18.2°C 60.8°F16.0°C 87% 1.1 mph ENE1.8 kmh ENE 4.5 mph7.2 kmh 29.99 in1015.6 mb 0.00 in0.0 mm 0.00 in0.0 mm 0.00 in0.0 mm
07:33 AM 64.6°F18.1°C 60.7°F15.9°C 87% 4.5 mph ENE7.2 kmh ENE 4.5 mph7.2 kmh 29.99 in1015.6 mb 0.00 in0.0 mm 0.00 in0.0 mm 0.00 in0.0 mm
07:28 AM 64.6°F18.1°C 60.7°F15.9°C 87% 3.6 mph ENE5.8 kmh ENE 3.6 mph5.8 kmh 29.99 in1015.6 mb 0.00 in0.0 mm 0.00 in0.0 mm 0.00 in0.0 mm
07:23 AM 64.6°F18.1°C 60.7°F15.9°C 87% 1.5 mph NE2.4 kmh NE 2.9 mph4.7 kmh 29.99 in1015.6 mb 0.00 in0.0 mm 0.00 in0.0 mm 0.00 in0.0 mm
07:18 AM 64.6°F18.1°C 60.7°F15.9°C 87% 0.9 mph S1.4 kmh S 3.4 mph5.5 kmh 29.99 in1015.6 mb 0.00 in0.0 mm 0.00 in0.0 mm 0.00 in0.0 mm
07:13 AM 64.8°F18.2°C 60.8°F16.0°C 87% 2.9 mph NE4.7 kmh NE 4.0 mph6.4 kmh 29.99 in1015.6 mb 0.00 in0.0 mm 0.00 in0.0 mm 0.00 in0.0 mm
07:08 AM 64.8°F18.2°C 60.8°F16.0°C 87% 2.8 mph E4.5 kmh E 4.0 mph6.4 kmh 29.99 in1015.6 mb 0.00 in0.0 mm 0.00 in0.0 mm 0.00 in0.0 mm
07:03 AM 64.8°F18.2°C 60.8°F16.0°C 87% 2.2 mph E3.5 kmh E 3.6 mph5.8 kmh 29.99 in1015.6 mb 0.00 in0.0 mm 0.00 in0.0 mm 0.00 in0.0 mm
06:58 AM 65.0°F18.3°C 61.0°F16.1°C 87% 1.6 mph ENE2.6 kmh ENE 3.4 mph5.5 kmh 29.99 in1015.6 mb 0.00 in0.0 mm 0.00 in0.0 mm 0.00 in0.0 mm
06:53 AM 65.0°F18.3°C 61.0°F16.1°C 87% 1.6 mph W2.6 kmh W 4.7 mph7.6 kmh 29.98 in1015.2 mb 0.00 in0.0 mm 0.00 in0.0 mm 0.00 in0.0 mm
06:48 AM 65.2°F18.4°C 61.2°F16.2°C 87% 2.5 mph ESE4.0 kmh ESE 5.4 mph8.7 kmh 29.98 in1015.2 mb 0.00 in0.0 mm 0.00 in0.0 mm 0.00 in0.0 mm
06:43 AM 65.2°F18.4°C 61.2°F16.2°C 87% 0.7 mph ENE1.1 kmh ENE 5.4 mph8.7 kmh 29.98 in1015.2 mb 0.00 in0.0 mm 0.00 in0.0 mm 0.00 in0.0 mm
06:38 AM 65.2°F18.4°C 61.2°F16.2°C 87% 1.6 mph ESE2.6 kmh ESE 3.8 mph6.1 kmh 29.98 in1015.2 mb 0.00 in0.0 mm 0.00 in0.0 mm 0.00 in0.0 mm
06:33 AM 65.3°F18.5°C 61.8°F16.6°C 88% 1.7 mph SE2.7 kmh SE 3.8 mph6.1 kmh 29.98 in1015.2 mb 0.00 in0.0 mm 0.00 in0.0 mm 0.00 in0.0 mm
06:28 AM 65.3°F18.5°C 61.8°F16.6°C 88% 1.8 mph ENE2.9 kmh ENE 3.8 mph6.1 kmh 29.98 in1015.2 mb 0.00 in0.0 mm 0.00 in0.0 mm 0.00 in0.0 mm
06:23 AM 65.3°F18.5°C 61.8°F16.6°C 88% 1.6 mph E2.6 kmh E 4.3 mph6.9 kmh 29.98 in1015.2 mb 0.00 in0.0 mm 0.00 in0.0 mm 0.00 in0.0 mm
06:18 AM 65.3°F18.5°C 61.8°F16.6°C 88% 1.9 mph E3.1 kmh E 4.3 mph6.9 kmh 29.98 in1015.2 mb 0.00 in0.0 mm 0.00 in0.0 mm 0.00 in0.0 mm
06:13 AM 65.3°F18.5°C 61.8°F16.6°C 88% 4.3 mph ENE6.9 kmh ENE 4.3 mph6.9 kmh 29.98 in1015.2 mb 0.00 in0.0 mm 0.00 in0.0 mm 0.00 in0.0 mm
06:08 AM 65.3°F18.5°C 61.8°F16.6°C 88% 1.6 mph NE2.6 kmh NE 2.7 mph4.3 kmh 29.98 in1015.2 mb 0.00 in0.0 mm 0.00 in0.0 mm 0.00 in0.0 mm
06:03 AM 65.3°F18.5°C 61.4°F16.3°C 87% 2.6 mph SE4.2 kmh SE 2.7 mph4.3 kmh 29.98 in1015.2 mb 0.00 in0.0 mm 0.00 in0.0 mm 0.00 in0.0 mm
05:58 AM 65.3°F18.5°C 61.4°F16.3°C 87% 2.0 mph ESE3.2 kmh ESE 2.7 mph4.3 kmh 29.97 in1014.9 mb 0.00 in0.0 mm 0.00 in0.0 mm 0.00 in0.0 mm
05:53 AM 65.3°F18.5°C 61.4°F16.3°C 87% 2.2 mph ESE3.5 kmh ESE 2.2 mph3.5 kmh 29.98 in1015.2 mb 0.00 in0.0 mm 0.00 in0.0 mm 0.00 in0.0 mm
05:48 AM 65.3°F18.5°C 61.4°F16.3°C 87% 1.1 mph E1.8 kmh E 1.3 mph2.1 kmh 29.98 in1015.2 mb 0.00 in0.0 mm 0.00 in0.0 mm 0.00 in0.0 mm
05:43 AM 65.3°F18.5°C 61.4°F16.3°C 87% 0.4 mph E0.6 kmh E 5.4 mph8.7 kmh 29.98 in1015.2 mb 0.00 in0.0 mm 0.00 in0.0 mm 0.00 in0.0 mm
05:38 AM 65.3°F18.5°C 61.4°F16.3°C 87% 2.8 mph E4.5 kmh E 5.4 mph8.7 kmh 29.98 in1015.2 mb 0.00 in0.0 mm 0.00 in0.0 mm 0.00 in0.0 mm
05:33 AM 65.3°F18.5°C 61.4°F16.3°C 87% 2.6 mph ESE4.2 kmh ESE 2.9 mph4.7 kmh 29.98 in1015.2 mb 0.00 in0.0 mm 0.00 in0.0 mm 0.00 in0.0 mm
05:28 AM 65.5°F18.6°C 61.6°F16.4°C 87% 2.1 mph E3.4 kmh E 2.5 mph4.0 kmh 29.98 in1015.2 mb 0.00 in0.0 mm 0.00 in0.0 mm 0.00 in0.0 mm
05:23 AM 65.5°F18.6°C 61.6°F16.4°C 87% 2.5 mph E4.0 kmh E 2.5 mph4.0 kmh 29.97 in1014.9 mb 0.00 in0.0 mm 0.00 in0.0 mm 0.00 in0.0 mm
05:18 AM 65.5°F18.6°C 61.6°F16.4°C 87% 0.7 mph NE1.1 kmh NE 1.8 mph2.9 kmh 29.98 in1015.2 mb 0.00 in0.0 mm 0.00 in0.0 mm 0.00 in0.0 mm
05:13 AM 65.5°F18.6°C 61.6°F16.4°C 87% 1.4 mph E2.3 kmh E 3.1 mph5.0 kmh 29.98 in1015.2 mb 0.00 in0.0 mm 0.00 in0.0 mm 0.00 in0.0 mm
05:08 AM 65.7°F18.7°C 61.8°F16.6°C 87% 1.4 mph E2.3 kmh E 3.1 mph5.0 kmh 29.98 in1015.2 mb 0.00 in0.0 mm 0.00 in0.0 mm 0.00 in0.0 mm
05:03 AM 65.7°F18.7°C 61.8°F16.6°C 87% 1.8 mph ESE2.9 kmh ESE 2.5 mph4.0 kmh 29.98 in1015.2 mb 0.00 in0.0 mm 0.00 in0.0 mm 0.00 in0.0 mm
04:58 AM 65.5°F18.6°C 61.6°F16.4°C 87% Calm Calm 2.5 mph4.0 kmh 29.98 in1015.2 mb 0.00 in0.0 mm 0.00 in0.0 mm 0.00 in0.0 mm
04:53 AM 65.5°F18.6°C 61.6°F16.4°C 87% 2.5 mph E4.0 kmh E 3.1 mph5.0 kmh 29.98 in1015.2 mb 0.00 in0.0 mm 0.00 in0.0 mm 0.00 in0.0 mm
04:48 AM 65.7°F18.7°C 61.8°F16.6°C 87% 2.4 mph NE3.9 kmh NE 3.1 mph5.0 kmh 29.98 in1015.2 mb 0.00 in0.0 mm 0.00 in0.0 mm 0.00 in0.0 mm
04:43 AM 65.7°F18.7°C 61.8°F16.6°C 87% 2.7 mph E4.3 kmh E 4.0 mph6.4 kmh 29.98 in1015.2 mb 0.00 in0.0 mm 0.00 in0.0 mm 0.00 in0.0 mm
04:38 AM 65.7°F18.7°C 61.8°F16.6°C 87% 3.9 mph ENE6.3 kmh ENE 5.1 mph8.2 kmh 29.98 in1015.2 mb 0.00 in0.0 mm 0.00 in0.0 mm 0.00 in0.0 mm
04:33 AM 65.7°F18.7°C 61.8°F16.6°C 87% 4.8 mph E7.7 kmh E 5.1 mph8.2 kmh 29.98 in1015.2 mb 0.00 in0.0 mm 0.00 in0.0 mm 0.00 in0.0 mm
04:28 AM 65.7°F18.7°C 61.8°F16.6°C 87% 3.8 mph ESE6.1 kmh ESE 4.0 mph6.4 kmh 29.98 in1015.2 mb 0.00 in0.0 mm 0.00 in0.0 mm 0.00 in0.0 mm
04:23 AM 65.7°F18.7°C 61.8°F16.6°C 87% 3.0 mph ESE4.8 kmh ESE 5.1 mph8.2 kmh 29.98 in1015.2 mb 0.00 in0.0 mm 0.00 in0.0 mm 0.00 in0.0 mm
04:18 AM 65.7°F18.7°C 61.8°F16.6°C 87% 3.6 mph E5.8 kmh E 5.1 mph8.2 kmh 29.98 in1015.2 mb 0.00 in0.0 mm 0.00 in0.0 mm 0.00 in0.0 mm
04:13 AM 65.7°F18.7°C 61.8°F16.6°C 87% 3.4 mph SSE5.5 kmh SSE 3.4 mph5.5 kmh 29.99 in1015.6 mb 0.00 in0.0 mm 0.00 in0.0 mm 0.00 in0.0 mm
04:08 AM 65.9°F18.8°C 61.8°F16.6°C 87% Calm Calm -- 29.99 in1015.6 mb 0.00 in0.0 mm 0.00 in0.0 mm 0.00 in0.0 mm
04:03 AM 65.9°F18.8°C 61.8°F16.6°C 87% Calm Calm -- 29.99 in1015.6 mb 0.00 in0.0 mm 0.00 in0.0 mm 0.00 in0.0 mm
03:58 AM 65.9°F18.8°C 61.8°F16.6°C 87% Calm Calm -- 29.99 in1015.6 mb 0.00 in0.0 mm 0.00 in0.0 mm 0.00 in0.0 mm
03:53 AM 65.9°F18.8°C 61.8°F16.6°C 87% Calm Calm -- 29.99 in1015.6 mb 0.00 in0.0 mm 0.00 in0.0 mm 0.00 in0.0 mm
03:48 AM 65.9°F18.8°C 61.8°F16.6°C 87% Calm Calm -- 29.99 in1015.6 mb 0.00 in0.0 mm 0.00 in0.0 mm 0.00 in0.0 mm
03:43 AM 65.9°F18.8°C 61.8°F16.6°C 87% Calm Calm -- 29.99 in1015.6 mb 0.00 in0.0 mm 0.00 in0.0 mm 0.00 in0.0 mm
03:38 AM 65.9°F18.8°C 61.6°F16.4°C 86% Calm Calm -- 30.00 in1015.9 mb 0.00 in0.0 mm 0.00 in0.0 mm 0.00 in0.0 mm
03:33 AM 65.9°F18.8°C 61.6°F16.4°C 86% Calm Calm -- 30.00 in1015.9 mb 0.00 in0.0 mm 0.00 in0.0 mm 0.00 in0.0 mm
03:28 AM 66.1°F18.9°C 61.8°F16.6°C 86% Calm Calm -- 29.99 in1015.6 mb 0.00 in0.0 mm 0.00 in0.0 mm 0.00 in0.0 mm
03:23 AM 66.1°F18.9°C 61.8°F16.6°C 86% Calm Calm -- 29.99 in1015.6 mb 0.00 in0.0 mm 0.00 in0.0 mm 0.00 in0.0 mm
03:18 AM 66.2°F19.0°C 61.9°F16.6°C 86% Calm Calm -- 29.99 in1015.6 mb 0.00 in0.0 mm 0.00 in0.0 mm 0.00 in0.0 mm
03:13 AM 66.4°F19.1°C 62.1°F16.7°C 86% Calm Calm -- 30.00 in1015.9 mb 0.00 in0.0 mm 0.00 in0.0 mm 0.00 in0.0 mm
03:08 AM 66.4°F19.1°C 62.4°F16.9°C 87% Calm Calm -- 30.00 in1015.9 mb 0.00 in0.0 mm 0.00 in0.0 mm 0.00 in0.0 mm
03:03 AM 66.4°F19.1°C 62.4°F16.9°C 87% Calm Calm 3.4 mph5.5 kmh 30.00 in1015.9 mb 0.00 in0.0 mm 0.00 in0.0 mm 0.00 in0.0 mm
02:58 AM 66.2°F19.0°C 62.2°F16.8°C 87% Calm Calm 3.4 mph5.5 kmh 30.00 in1015.9 mb 0.00 in0.0 mm 0.00 in0.0 mm 0.00 in0.0 mm
02:53 AM 66.4°F19.1°C 62.4°F16.9°C 87% 3.4 mph SSE5.5 kmh SSE 3.4 mph5.5 kmh 29.99 in1015.6 mb 0.00 in0.0 mm 0.00 in0.0 mm 0.00 in0.0 mm
02:48 AM 66.4°F19.1°C 62.4°F16.9°C 87% 3.1 mph E5.0 kmh E 3.4 mph5.5 kmh 29.99 in1015.6 mb 0.00 in0.0 mm 0.00 in0.0 mm 0.00 in0.0 mm
02:43 AM 66.6°F19.2°C 62.3°F16.8°C 86% 1.0 mph E1.6 kmh E 2.9 mph4.7 kmh 29.99 in1015.6 mb 0.00 in0.0 mm 0.00 in0.0 mm 0.00 in0.0 mm
02:38 AM 66.6°F19.2°C 62.6°F17.0°C 87% 2.5 mph ESE4.0 kmh ESE 4.7 mph7.6 kmh 29.99 in1015.6 mb 0.00 in0.0 mm 0.00 in0.0 mm 0.00 in0.0 mm
02:33 AM 66.6°F19.2°C 62.6°F17.0°C 87% 4.4 mph ESE7.1 kmh ESE 4.7 mph7.6 kmh 30.00 in1015.9 mb 0.00 in0.0 mm 0.00 in0.0 mm 0.00 in0.0 mm
02:28 AM 66.6°F19.2°C 62.6°F17.0°C 87% 1.8 mph SE2.9 kmh SE 3.1 mph5.0 kmh 30.00 in1015.9 mb 0.00 in0.0 mm 0.00 in0.0 mm 0.00 in0.0 mm
02:23 AM 66.6°F19.2°C 62.6°F17.0°C 87% Calm Calm 3.1 mph5.0 kmh 30.00 in1015.9 mb 0.00 in0.0 mm 0.00 in0.0 mm 0.00 in0.0 mm
02:18 AM 66.6°F19.2°C 62.6°F17.0°C 87% 3.1 mph NNE5.0 kmh NNE 3.8 mph6.1 kmh 30.00 in1015.9 mb 0.00 in0.0 mm 0.00 in0.0 mm 0.00 in0.0 mm
02:13 AM 66.8°F19.3°C 62.7°F17.1°C 87% 2.9 mph S4.7 kmh S 3.8 mph6.1 kmh 30.00 in1015.9 mb 0.00 in0.0 mm 0.00 in0.0 mm 0.00 in0.0 mm
02:08 AM 66.8°F19.3°C 62.5°F16.9°C 86% 2.8 mph N4.5 kmh N 6.5 mph10.5 kmh 30.00 in1015.9 mb 0.00 in0.0 mm 0.00 in0.0 mm 0.00 in0.0 mm
02:03 AM 66.8°F19.3°C 62.5°F16.9°C 86% 4.5 mph ENE7.2 kmh ENE 6.5 mph10.5 kmh 30.00 in1015.9 mb 0.00 in0.0 mm 0.00 in0.0 mm 0.00 in0.0 mm
01:58 AM 67.0°F19.4°C 62.7°F17.1°C 86% 4.2 mph NNE6.8 kmh NNE 4.5 mph7.2 kmh 30.00 in1015.9 mb 0.00 in0.0 mm 0.00 in0.0 mm 0.00 in0.0 mm
01:53 AM 67.0°F19.4°C 62.7°F17.1°C 86% 4.5 mph E7.2 kmh E 4.5 mph7.2 kmh 30.00 in1015.9 mb 0.00 in0.0 mm 0.00 in0.0 mm 0.00 in0.0 mm
01:48 AM 67.0°F19.4°C 62.7°F17.1°C 86% 1.9 mph NE3.1 kmh NE 2.7 mph4.3 kmh 30.00 in1015.9 mb 0.00 in0.0 mm 0.00 in0.0 mm 0.00 in0.0 mm
01:43 AM 67.0°F19.4°C 62.7°F17.1°C 86% 0.9 mph ENE1.4 kmh ENE 4.9 mph7.9 kmh 30.00 in1015.9 mb 0.00 in0.0 mm 0.00 in0.0 mm 0.00 in0.0 mm
01:38 AM 67.0°F19.4°C 62.7°F17.1°C 86% 2.2 mph ENE3.5 kmh ENE 5.1 mph8.2 kmh 30.00 in1015.9 mb 0.00 in0.0 mm 0.00 in0.0 mm 0.00 in0.0 mm
01:33 AM 67.0°F19.4°C 62.7°F17.1°C 86% 5.1 mph E8.2 kmh E 5.1 mph8.2 kmh 30.00 in1015.9 mb 0.00 in0.0 mm 0.00 in0.0 mm 0.00 in0.0 mm
01:28 AM 67.0°F19.4°C 62.7°F17.1°C 86% 4.1 mph ESE6.6 kmh ESE 4.3 mph6.9 kmh 30.00 in1015.9 mb 0.00 in0.0 mm 0.00 in0.0 mm 0.00 in0.0 mm
01:23 AM 67.1°F19.5°C 62.8°F17.1°C 86% 2.7 mph E4.3 kmh E 6.9 mph11.1 kmh 30.00 in1015.9 mb 0.00 in0.0 mm 0.00 in0.0 mm 0.00 in0.0 mm
01:18 AM 67.1°F19.5°C 62.5°F16.9°C 85% 4.9 mph E7.9 kmh E 6.9 mph11.1 kmh 30.00 in1015.9 mb 0.00 in0.0 mm 0.00 in0.0 mm 0.00 in0.0 mm
01:13 AM 67.1°F19.5°C 62.5°F16.9°C 85% 4.0 mph ENE6.4 kmh ENE 6.9 mph11.1 kmh 30.01 in1016.3 mb 0.00 in0.0 mm 0.00 in0.0 mm 0.00 in0.0 mm
01:08 AM 67.1°F19.5°C 62.5°F16.9°C 85% 3.4 mph SSW5.5 kmh SSW 3.4 mph5.5 kmh 30.01 in1016.3 mb 0.00 in0.0 mm 0.00 in0.0 mm 0.00 in0.0 mm
01:03 AM 67.1°F19.5°C 62.5°F16.9°C 85% 1.4 mph NE2.3 kmh NE 4.0 mph6.4 kmh 30.01 in1016.3 mb 0.00 in0.0 mm 0.00 in0.0 mm 0.00 in0.0 mm
12:58 AM 67.3°F19.6°C 62.6°F17.0°C 85% 1.8 mph NNE2.9 kmh NNE 4.0 mph6.4 kmh 30.01 in1016.3 mb 0.00 in0.0 mm 0.00 in0.0 mm 0.00 in0.0 mm
12:53 AM 67.3°F19.6°C 62.6°F17.0°C 85% 4.0 mph NE6.4 kmh NE 4.0 mph6.4 kmh 30.01 in1016.3 mb 0.00 in0.0 mm 0.00 in0.0 mm 0.00 in0.0 mm
12:48 AM 67.3°F19.6°C 62.6°F17.0°C 85% 1.8 mph SE2.9 kmh SE 3.1 mph5.0 kmh 30.01 in1016.3 mb 0.00 in0.0 mm 0.00 in0.0 mm 0.00 in0.0 mm
12:43 AM 67.3°F19.6°C 62.3°F16.8°C 84% 1.9 mph ESE3.1 kmh ESE 4.7 mph7.6 kmh 30.01 in1016.3 mb 0.00 in0.0 mm 0.00 in0.0 mm 0.00 in0.0 mm
12:38 AM 67.3°F19.6°C 62.3°F16.8°C 84% 1.6 mph NE2.6 kmh NE 4.7 mph7.6 kmh 30.01 in1016.3 mb 0.00 in0.0 mm 0.00 in0.0 mm 0.00 in0.0 mm
12:33 AM 67.5°F19.7°C 62.5°F16.9°C 84% 2.7 mph NNE4.3 kmh NNE 3.4 mph5.5 kmh 30.01 in1016.3 mb 0.00 in0.0 mm 0.00 in0.0 mm 0.00 in0.0 mm
12:28 AM 67.5°F19.7°C 62.2°F16.8°C 83% 1.1 mph ENE1.8 kmh ENE 3.1 mph5.0 kmh 30.00 in1015.9 mb 0.00 in0.0 mm 0.00 in0.0 mm 0.00 in0.0 mm
12:23 AM 67.7°F19.8°C 62.4°F16.9°C 83% 2.0 mph ENE3.2 kmh ENE 2.2 mph3.5 kmh 30.01 in1016.3 mb 0.00 in0.0 mm 0.00 in0.0 mm 0.00 in0.0 mm
12:18 AM 67.7°F19.8°C 62.4°F16.9°C 83% 2.2 mph ENE3.5 kmh ENE 2.2 mph3.5 kmh 30.01 in1016.3 mb 0.00 in0.0 mm 0.00 in0.0 mm 0.00 in0.0 mm
12:13 AM 67.9°F19.9°C 62.6°F17.0°C 83% 1.3 mph NE2.1 kmh NE 1.3 mph2.1 kmh 30.01 in1016.3 mb 0.00 in0.0 mm 0.00 in0.0 mm 0.00 in0.0 mm
12:08 AM 68.0°F20.0°C 62.4°F16.9°C 82% Calm Calm 0.4 mph0.6 kmh 30.01 in1016.3 mb 0.00 in0.0 mm 0.00 in0.0 mm 0.00 in0.0 mm
12:03 AM 68.0°F20.0°C 62.4°F16.9°C 82% 0.4 mph E0.6 kmh E 0.4 mph0.6 kmh 30.01 in1016.3 mb 0.00 in0.0 mm 0.00 in0.0 mm 0.00 in0.0 mm